Time;durP1;ratioP1;P1;durP2;ratioP2;P2;SDS_P1;SDS_P2;PMS_P1;PMS_P2;Temp;Humidity;BMP_temperature;BMP_pressure;BME280_temperature;BME280_humidity;BME280_pressure;Samples;Min_cycle;Max_cycle;Signal;HPM_P1;HPM_P2
2023/04/13 00:00:23;;;;;;;3.83;1.50;;;;;;;8.01;69.21;99343.94;5087342;28;20036;-65
2023/04/13 00:02:52;;;;;;;3.17;1.55;;;;;;;8.07;69.36;99336.50;5077701;28;20028;-65
2023/04/13 00:05:18;;;;;;;3.33;1.55;;;;;;;8.04;69.46;99324.06;5090987;28;20032;-65
2023/04/13 00:07:44;;;;;;;3.03;1.50;;;;;;;8.10;69.54;99336.78;5079390;28;20506;-65
2023/04/13 00:10:09;;;;;;;4.00;1.45;;;;;;;7.97;69.78;99329.00;5080792;28;20383;-65
2023/04/13 00:12:36;;;;;;;2.85;1.50;;;;;;;7.96;69.34;99321.00;5073664;28;20118;-65
2023/04/13 00:15:04;;;;;;;3.92;1.60;;;;;;;7.92;70.24;99317.97;5049423;28;20484;-65
2023/04/13 00:17:30;;;;;;;3.25;1.48;;;;;;;7.86;70.08;99322.66;5068630;28;20021;-65
2023/04/13 00:19:58;;;;;;;4.35;1.60;;;;;;;7.87;69.99;99318.78;5053893;28;20025;-65
2023/04/13 00:22:24;;;;;;;3.30;1.50;;;;;;;7.88;70.30;99320.44;5060358;28;20032;-64
2023/04/13 00:24:53;;;;;;;3.33;1.30;;;;;;;7.83;70.60;99320.44;5058957;28;20029;-65
2023/04/13 00:27:19;;;;;;;4.72;1.67;;;;;;;7.91;70.49;99323.75;5051142;28;20107;-65
2023/04/13 00:29:44;;;;;;;5.53;1.60;;;;;;;7.94;70.15;99324.06;5053909;28;20124;-65
2023/04/13 00:32:09;;;;;;;3.83;1.48;;;;;;;7.96;70.82;99330.13;5050750;28;20108;-65
2023/04/13 00:34:35;;;;;;;2.28;1.40;;;;;;;7.97;70.47;99315.19;5052107;28;20040;-65
2023/04/13 00:37:01;;;;;;;2.13;1.42;;;;;;;7.99;71.29;99326.81;5069929;28;20596;-65
2023/04/13 00:39:29;;;;;;;2.38;1.40;;;;;;;8.02;70.92;99326.28;5068931;28;20351;-65
2023/04/13 00:41:57;;;;;;;4.93;1.67;;;;;;;7.98;72.15;99316.88;5056717;28;20024;-64
2023/04/13 00:44:22;;;;;;;3.00;1.35;;;;;;;7.99;71.64;99321.28;5064157;28;20033;-65
2023/04/13 00:46:49;;;;;;;4.40;1.85;;;;;;;7.99;72.17;99317.69;5068966;28;20036;-65
2023/04/13 00:49:14;;;;;;;1.63;1.15;;;;;;;7.99;72.30;99326.81;5067876;28;20170;-65
2023/04/13 00:51:41;;;;;;;4.13;1.63;;;;;;;7.90;72.28;99336.75;5058104;28;20060;-64
2023/04/13 00:54:06;;;;;;;3.50;1.67;;;;;;;7.94;72.17;99329.56;5051103;28;20044;-64
2023/04/13 00:56:32;;;;;;;3.53;1.67;;;;;;;7.94;72.31;99325.97;5050344;28;20033;-64
2023/04/13 00:58:58;;;;;;;3.55;1.30;;;;;;;7.99;72.76;99326.81;5055799;28;20119;-65
2023/04/13 01:01:24;;;;;;;6.60;1.58;;;;;;;8.00;72.34;99319.34;5050354;28;20056;-65
2023/04/13 01:03:52;;;;;;;2.10;1.30;;;;;;;8.01;72.55;99324.59;5058781;28;20020;-64
2023/04/13 01:06:25;;;;;;;2.85;1.20;;;;;;;8.05;72.41;99322.94;5066947;28;20111;-64
2023/04/13 01:09:01;;;;;;;1.92;1.15;;;;;;;8.01;72.66;99324.59;5065097;28;20120;-64
2023/04/13 01:11:35;;;;;;;3.50;1.23;;;;;;;7.93;72.38;99327.91;5049871;28;20406;-65
2023/04/13 01:14:07;;;;;;;5.18;1.42;;;;;;;7.99;72.93;99321.28;5078183;28;20040;-65
2023/04/13 01:16:42;;;;;;;3.28;1.30;;;;;;;8.07;71.86;99329.03;5077602;28;20035;-65
2023/04/13 01:19:20;;;;;;;4.55;1.60;;;;;;;8.06;72.38;99321.84;5069453;28;20039;-64
2023/04/13 01:21:47;;;;;;;5.40;1.80;;;;;;;8.06;72.46;99324.63;5076755;28;20067;-65
2023/04/13 01:24:40;;;;;;;5.00;1.70;;;;;;;8.14;72.21;99333.47;5083010;28;20430;-65
2023/04/13 01:27:11;;;;;;;7.95;2.00;;;;;;;8.13;72.70;99324.34;5080838;28;20673;-65
2023/04/13 01:29:38;;;;;;;4.07;1.52;;;;;;;8.12;71.89;99323.50;5087994;28;20031;-65
2023/04/13 01:32:04;;;;;;;3.20;1.55;;;;;;;8.22;72.31;99332.94;5087307;28;20387;-65
2023/04/13 01:34:30;;;;;;;2.88;1.30;;;;;;;8.26;72.44;99326.56;5089034;28;20446;-65
2023/04/13 01:36:56;;;;;;;4.57;1.63;;;;;;;8.23;72.22;99340.13;5081727;28;20056;-65
2023/04/13 01:39:24;;;;;;;5.40;1.67;;;;;;;8.24;72.55;99330.72;5074324;28;20433;-65
2023/04/13 01:41:49;;;;;;;5.28;1.63;;;;;;;8.26;72.59;99345.09;5090358;28;20463;-65
2023/04/13 01:44:15;;;;;;;7.32;1.63;;;;;;;8.25;72.28;99344.28;5072242;28;20112;-65
2023/04/13 01:46:45;;;;;;;6.90;1.83;;;;;;;8.26;72.76;99347.88;5084619;28;20039;-65
2023/04/13 01:49:12;;;;;;;6.60;1.83;;;;;;;8.29;72.62;99373.03;5086952;28;20463;-64
2023/04/13 01:51:40;;;;;;;5.47;1.52;;;;;;;8.31;72.91;99353.41;5079532;28;20036;-65
2023/04/13 01:54:11;;;;;;;5.10;1.73;;;;;;;8.25;73.73;99358.09;5072748;28;20039;-65
2023/04/13 01:56:40;;;;;;;5.38;1.60;;;;;;;8.19;74.30;99361.13;5091593;28;20036;-65
2023/04/13 01:59:05;;;;;;;6.45;1.65;;;;;;;8.25;74.26;99366.38;5091011;28;20035;-65
2023/04/13 02:01:31;;;;;;;2.88;1.60;;;;;;;8.26;73.91;99368.03;5091941;28;20031;-65
2023/04/13 02:03:56;;;;;;;4.93;1.60;;;;;;;8.29;74.44;99377.69;5092693;28;20036;-65
2023/04/13 02:06:22;;;;;;;3.95;1.50;;;;;;;8.29;74.01;99377.69;5087870;28;20028;-65
2023/04/13 02:08:48;;;;;;;5.07;1.65;;;;;;;8.28;73.75;99387.09;5080926;28;20471;-65
2023/04/13 02:11:14;;;;;;;3.88;1.60;;;;;;;8.32;74.42;99388.22;5088526;28;20673;-65
2023/04/13 02:13:40;;;;;;;5.70;1.95;;;;;;;8.31;74.65;99389.34;5084203;28;20392;-65
2023/04/13 02:16:07;;;;;;;6.25;2.15;;;;;;;8.31;74.43;99392.09;5083915;28;20032;-65
2023/04/13 02:18:33;;;;;;;4.45;1.65;;;;;;;8.31;74.14;99398.44;5082705;28;20036;-65
2023/04/13 02:21:01;;;;;;;4.55;1.65;;;;;;;8.31;73.73;99403.16;5080541;28;20570;-65
2023/04/13 02:23:27;;;;;;;4.85;1.80;;;;;;;8.30;74.17;99410.63;5076450;28;20107;-65
2023/04/13 02:25:52;;;;;;;6.30;1.90;;;;;;;8.32;73.82;99413.91;5091134;28;20127;-65
2023/04/13 02:28:17;;;;;;;3.85;1.65;;;;;;;8.34;74.10;99414.50;5090487;28;20082;-65
2023/04/13 02:30:43;;;;;;;4.32;1.80;;;;;;;8.36;73.78;99409.50;5090484;28;20497;-65
2023/04/13 02:33:08;;;;;;;5.50;1.80;;;;;;;8.39;73.92;99424.75;5089108;28;20028;-65
2023/04/13 02:35:37;;;;;;;4.88;1.60;;;;;;;8.35;73.46;99420.84;5086269;28;20036;-64
2023/04/13 02:38:03;;;;;;;5.10;1.70;;;;;;;8.38;74.09;99436.09;5076731;28;20032;-65
2023/04/13 02:40:28;;;;;;;5.95;2.00;;;;;;;8.34;73.74;99430.25;5081346;28;20028;-65
2023/04/13 02:42:56;;;;;;;6.20;1.95;;;;;;;8.35;74.01;99440.19;5071680;28;20121;-65
2023/04/13 02:45:21;;;;;;;6.53;1.90;;;;;;;8.37;73.71;99429.75;5086934;28;20030;-65
2023/04/13 02:47:46;;;;;;;3.70;1.83;;;;;;;8.35;73.70;99435.50;5082500;28;20379;-65
2023/04/13 02:50:12;;;;;;;4.40;1.70;;;;;;;8.32;73.99;99443.50;5086266;28;20036;-65
2023/04/13 02:52:38;;;;;;;6.35;1.75;;;;;;;8.36;73.79;99455.69;5073418;28;20036;-65
2023/04/13 02:55:04;;;;;;;4.88;2.10;;;;;;;8.32;74.27;99465.63;5076427;28;20037;-65
2023/04/13 02:57:30;;;;;;;3.90;2.08;;;;;;;8.33;74.51;99461.75;5082288;28;20028;-65
2023/04/13 02:59:56;;;;;;;6.28;1.95;;;;;;;8.35;74.37;99470.63;5072618;28;20055;-65
2023/04/13 03:02:22;;;;;;;8.40;1.80;;;;;;;8.33;73.84;99472.81;5075635;28;20058;-65
2023/04/13 03:04:47;;;;;;;6.22;2.05;;;;;;;8.38;74.31;99495.00;5074834;28;20483;-65
2023/04/13 03:07:13;;;;;;;5.20;2.05;;;;;;;8.41;74.99;99491.69;5075381;28;20039;-65
2023/04/13 03:09:43;;;;;;;4.20;1.98;;;;;;;8.42;73.84;99496.09;5071080;28;20044;-65
2023/04/13 03:12:09;;;;;;;2.88;1.70;;;;;;;8.40;72.97;99495.53;5077624;28;20124;-65
2023/04/13 03:14:35;;;;;;;2.20;1.20;;;;;;;8.42;71.85;99500.81;5072804;28;20101;-65
2023/04/13 03:17:02;;;;;;;2.25;1.30;;;;;;;8.34;71.20;99507.66;5081475;28;20065;-65
2023/04/13 03:19:27;;;;;;;6.72;1.30;;;;;;;8.33;71.88;99515.13;5087382;28;20034;-65
2023/04/13 03:21:53;;;;;;;2.70;1.35;;;;;;;8.39;71.37;99513.22;5077922;28;20028;-66
2023/04/13 03:24:19;;;;;;;7.53;2.00;;;;;;;8.39;72.17;99510.47;5090292;28;20032;-66
2023/04/13 03:26:44;;;;;;;3.92;2.08;;;;;;;8.33;72.07;99512.38;5075407;28;20028;-64
2023/04/13 03:29:09;;;;;;;3.65;1.85;;;;;;;8.35;72.69;99520.38;5087938;28;20101;-66
2023/04/13 03:31:35;;;;;;;3.78;1.70;;;;;;;8.29;73.02;99522.31;5080127;28;20032;-66
2023/04/13 03:34:00;;;;;;;4.20;2.08;;;;;;;8.30;72.58;99523.97;5069570;28;20088;-66
2023/04/13 03:36:26;;;;;;;5.97;2.33;;;;;;;8.28;72.84;99528.91;5071808;28;20036;-66
2023/04/13 03:38:52;;;;;;;3.78;1.77;;;;;;;8.29;73.32;99532.50;5074292;28;20036;-66
2023/04/13 03:41:18;;;;;;;4.93;2.25;;;;;;;8.34;73.42;99546.38;5073901;28;20032;-66
2023/04/13 03:43:43;;;;;;;4.45;2.45;;;;;;;8.33;73.57;99540.00;5079081;28;20360;-65
2023/04/13 03:46:09;;;;;;;4.75;2.78;;;;;;;8.32;73.64;99541.09;5091595;28;20546;-65
2023/04/13 03:48:35;;;;;;;8.52;2.72;;;;;;;8.32;73.53;99545.78;5090875;28;20039;-65
2023/04/13 03:51:00;;;;;;;6.40;2.88;;;;;;;8.30;73.96;99545.25;5088691;28;20104;-65
2023/04/13 03:53:25;;;;;;;6.22;2.80;;;;;;;8.30;74.02;99559.06;5082540;28;20051;-65
2023/04/13 03:55:51;;;;;;;6.63;3.17;;;;;;;8.30;73.97;99556.31;5091932;28;20034;-65
2023/04/13 03:58:17;;;;;;;7.03;3.13;;;;;;;8.32;73.19;99557.69;5091769;28;20142;-65
2023/04/13 04:00:42;;;;;;;6.07;3.58;;;;;;;8.32;72.96;99567.91;5086200;28;20032;-65
2023/04/13 04:03:08;;;;;;;6.40;3.53;;;;;;;8.29;73.58;99563.78;5085865;28;20801;-65
2023/04/13 04:05:33;;;;;;;4.63;3.28;;;;;;;8.28;73.40;99569.56;5077825;28;20097;-65
2023/04/13 04:07:58;;;;;;;5.07;3.70;;;;;;;8.28;74.07;99570.38;5076916;28;20032;-65
2023/04/13 04:10:24;;;;;;;6.03;2.90;;;;;;;8.28;73.65;99572.31;5071071;28;20487;-65
2023/04/13 04:12:50;;;;;;;8.80;3.60;;;;;;;8.29;73.54;99580.38;5071034;28;20087;-65
2023/04/13 04:15:16;;;;;;;7.30;3.58;;;;;;;8.30;73.63;99573.72;5069456;28;20384;-65
2023/04/13 04:17:41;;;;;;;8.18;3.55;;;;;;;8.27;73.49;99601.06;5071958;28;20025;-65
2023/04/13 04:20:07;;;;;;;5.75;3.75;;;;;;;8.30;73.17;99595.00;5078556;28;20058;-65
2023/04/13 04:22:33;;;;;;;5.65;2.70;;;;;;;8.19;73.99;99613.47;5071226;28;20099;-65
2023/04/13 04:25:00;;;;;;;5.78;3.13;;;;;;;8.22;73.64;99603.81;5078538;28;20535;-65
2023/04/13 04:27:26;;;;;;;7.28;3.30;;;;;;;8.16;73.37;99615.94;5070544;28;20141;-65
2023/04/13 04:29:51;;;;;;;6.53;3.30;;;;;;;8.17;73.61;99609.28;5070969;28;20476;-65
2023/04/13 04:32:18;;;;;;;8.73;3.38;;;;;;;8.19;74.01;99616.22;5081676;28;20052;-65
2023/04/13 04:34:45;;;;;;;6.35;2.97;;;;;;;8.16;73.46;99610.41;5071812;28;20029;-65
2023/04/13 04:37:12;;;;;;;4.25;3.33;;;;;;;8.15;73.08;99623.41;5071048;28;20033;-65
2023/04/13 04:39:43;;;;;;;7.22;3.05;;;;;;;8.14;73.84;99620.91;5084852;28;20052;-65
2023/04/13 04:42:09;;;;;;;5.88;3.70;;;;;;;8.19;72.96;99621.75;5090771;28;20028;-65
2023/04/13 04:44:36;;;;;;;4.13;2.95;;;;;;;8.21;73.40;99633.38;5090687;28;20399;-65
2023/04/13 04:47:03;;;;;;;6.70;3.65;;;;;;;8.16;73.41;99644.41;5081563;28;20036;-65
2023/04/13 04:49:28;;;;;;;8.80;3.90;;;;;;;8.15;73.54;99639.16;5069821;28;20032;-65
2023/04/13 04:51:56;;;;;;;5.28;3.63;;;;;;;8.17;73.66;99643.28;5084316;28;20036;-65
2023/04/13 04:54:22;;;;;;;6.72;3.67;;;;;;;8.17;73.17;99642.47;5088320;28;20046;-65
2023/04/13 04:56:47;;;;;;;6.50;3.75;;;;;;;8.12;72.60;99657.91;5077666;28;20024;-65
2023/04/13 04:59:13;;;;;;;5.30;4.05;;;;;;;8.06;72.66;99656.22;5075713;28;20032;-65
2023/04/13 05:01:39;;;;;;;6.07;4.32;;;;;;;8.07;73.42;99654.28;5081570;28;20031;-65
2023/04/13 05:04:06;;;;;;;7.57;4.07;;;;;;;8.07;73.14;99657.06;5081551;28;20448;-65
2023/04/13 05:06:32;;;;;;;7.15;3.80;;;;;;;8.06;73.32;99655.41;5070860;28;20104;-65
2023/04/13 05:09:02;;;;;;;6.25;4.00;;;;;;;8.12;73.16;99660.69;5070864;28;20025;-65
2023/04/13 05:11:28;;;;;;;8.40;4.40;;;;;;;8.10;73.85;99659.31;5071932;28;20103;-64
2023/04/13 05:13:55;;;;;;;7.05;4.45;;;;;;;8.18;73.27;99663.50;5058410;28;20028;-65
2023/04/13 05:16:20;;;;;;;8.70;4.35;;;;;;;8.18;73.21;99657.97;5068411;28;20035;-65
2023/04/13 05:18:47;;;;;;;6.35;4.57;;;;;;;8.11;73.08;99669.25;5061362;28;20116;-65
2023/04/13 05:21:13;;;;;;;5.85;4.45;;;;;;;8.10;72.84;99657.38;5061796;28;20087;-65
2023/04/13 05:23:39;;;;;;;8.30;4.38;;;;;;;8.05;73.30;99664.78;5068598;28;20500;-66
2023/04/13 05:26:05;;;;;;;6.03;4.30;;;;;;;8.02;73.74;99666.16;5071293;28;20079;-65
2023/04/13 05:28:30;;;;;;;8.40;4.20;;;;;;;8.03;73.37;99670.56;5056121;28;20068;-65
2023/04/13 05:31:05;;;;;;;7.53;3.88;;;;;;;8.12;73.57;99674.50;5050898;28;20025;-65
2023/04/13 05:33:34;;;;;;;6.22;4.03;;;;;;;8.10;73.37;99678.66;5051872;28;20460;-65
2023/04/13 05:36:01;;;;;;;7.22;3.40;;;;;;;8.12;73.62;99688.31;5050633;28;20025;-64
2023/04/13 05:38:26;;;;;;;6.60;3.78;;;;;;;8.09;73.38;99680.56;5051006;28;21659;-64
2023/04/13 05:40:52;;;;;;;11.20;3.13;;;;;;;8.14;73.80;99690.00;5057629;28;20033;-64
2023/04/13 05:43:18;;;;;;;6.65;3.22;;;;;;;8.15;74.00;99702.72;5057596;28;20024;-64
2023/04/13 05:45:44;;;;;;;7.10;2.97;;;;;;;8.18;73.87;99707.72;5047746;28;20032;-64
2023/04/13 05:48:09;;;;;;;7.43;2.70;;;;;;;8.21;73.10;99707.16;5056103;28;20043;-64
2023/04/13 05:50:34;;;;;;;6.35;2.75;;;;;;;8.15;72.99;99702.72;5060725;28;20039;-65
2023/04/13 05:53:00;;;;;;;6.18;2.72;;;;;;;8.18;73.53;99707.72;5070109;28;20079;-65
2023/04/13 05:55:26;;;;;;;7.38;2.40;;;;;;;8.18;73.20;99705.78;5069802;28;20028;-63
2023/04/13 05:57:52;;;;;;;4.70;2.60;;;;;;;8.20;73.58;99720.16;5068529;28;20021;-64
2023/04/13 06:00:21;;;;;;;5.22;2.30;;;;;;;8.20;72.98;99711.03;5054597;28;20079;-64
2023/04/13 06:02:48;;;;;;;4.07;2.20;;;;;;;8.22;72.66;99728.22;5049725;28;20041;-64
2023/04/13 06:05:17;;;;;;;3.90;2.47;;;;;;;8.25;72.96;99730.41;5051247;28;20116;-64
2023/04/13 06:07:43;;;;;;;6.93;2.28;;;;;;;8.29;73.28;99734.31;5048729;28;20556;-67
2023/04/13 06:10:10;;;;;;;4.07;2.00;;;;;;;8.26;73.58;99743.16;5063438;28;20017;-65
2023/04/13 06:12:36;;;;;;;5.90;2.50;;;;;;;8.27;72.46;99744.81;5061508;28;20076;-65
2023/04/13 06:15:02;;;;;;;3.50;2.10;;;;;;;8.30;73.17;99766.41;5072674;28;20062;-63
2023/04/13 06:17:28;;;;;;;5.20;2.05;;;;;;;8.29;73.75;99759.19;5072707;28;20035;-64
2023/04/13 06:19:53;;;;;;;5.50;2.40;;;;;;;8.29;73.06;99757.28;5067797;28;20033;-64
2023/04/13 06:22:19;;;;;;;4.93;2.80;;;;;;;8.32;73.07;99758.69;5084010;28;20030;-65
2023/04/13 06:24:44;;;;;;;4.75;2.60;;;;;;;8.29;72.97;99759.19;5084219;28;20040;-67
2023/04/13 06:27:10;;;;;;;4.13;2.60;;;;;;;8.27;73.53;99766.94;5087243;28;20032;-63
2023/04/13 06:29:36;;;;;;;5.20;2.55;;;;;;;8.29;73.78;99765.59;5081785;28;20059;-64
2023/04/13 06:32:03;;;;;;;4.55;2.40;;;;;;;8.32;73.56;99766.97;5064068;28;20119;-65
2023/04/13 06:34:28;;;;;;;5.40;2.47;;;;;;;8.38;73.26;99774.25;5062211;28;20121;-64
2023/04/13 06:36:53;;;;;;;3.97;2.30;;;;;;;8.36;73.96;99770.88;5072302;28;20052;-65
2023/04/13 06:39:19;;;;;;;5.28;2.30;;;;;;;8.38;73.23;99776.19;5074120;28;20037;-63
2023/04/13 06:41:44;;;;;;;4.43;2.40;;;;;;;8.39;74.14;99792.50;5077463;28;20146;-63
2023/04/13 06:44:10;;;;;;;4.32;2.40;;;;;;;8.42;73.82;99793.91;5070849;28;20480;-63
2023/04/13 06:46:41;;;;;;;5.55;2.33;;;;;;;8.45;73.74;99787.81;5074332;28;20032;-63
2023/04/13 06:49:06;;;;;;;4.50;2.42;;;;;;;8.39;73.76;99799.97;5072054;28;20032;-65
2023/04/13 06:51:32;;;;;;;5.57;2.88;;;;;;;8.39;74.09;99805.50;5074606;28;20032;-65
2023/04/13 06:53:58;;;;;;;7.70;2.60;;;;;;;8.38;73.81;99807.44;5075571;28;20047;-65
2023/04/13 06:56:24;;;;;;;5.78;2.95;;;;;;;8.43;74.12;99803.88;5072082;28;20048;-65
2023/04/13 06:58:49;;;;;;;6.68;2.70;;;;;;;8.43;73.89;99818.53;5082177;28;20040;-64
2023/04/13 07:01:17;;;;;;;5.63;2.67;;;;;;;8.48;73.63;99823.25;5077381;28;20142;-64
2023/04/13 07:03:42;;;;;;;7.50;2.53;;;;;;;8.49;74.24;99820.25;5072975;28;20033;-64
2023/04/13 07:06:08;;;;;;;8.80;2.92;;;;;;;8.51;73.65;99818.03;5086070;28;20531;-64
2023/04/13 07:08:34;;;;;;;8.18;3.00;;;;;;;8.50;74.05;99823.84;5082841;28;20036;-65
2023/04/13 07:11:01;;;;;;;7.05;2.67;;;;;;;8.51;73.56;99820.78;5078775;28;20063;-65
2023/04/13 07:13:26;;;;;;;9.05;3.22;;;;;;;8.49;73.97;99824.91;5073090;28;20040;-64
2023/04/13 07:15:51;;;;;;;9.00;3.08;;;;;;;8.50;74.32;99838.50;5087755;28;20031;-65
2023/04/13 07:18:17;;;;;;;7.00;3.20;;;;;;;8.51;73.65;99839.31;5087679;28;20482;-64
2023/04/13 07:20:42;;;;;;;6.95;2.83;;;;;;;8.56;74.00;99853.19;5069927;28;20024;-65
2023/04/13 07:23:07;;;;;;;10.95;3.90;;;;;;;8.52;73.69;99857.56;5079505;28;20039;-64
2023/04/13 07:25:33;;;;;;;6.68;2.80;;;;;;;8.55;73.58;99857.06;5090226;28;20037;-65
2023/04/13 07:27:59;;;;;;;5.85;2.88;;;;;;;8.55;73.70;99865.34;5086605;28;20044;-64
2023/04/13 07:30:25;;;;;;;9.13;3.17;;;;;;;8.57;73.91;99864.00;5084244;28;20024;-64
2023/04/13 07:32:51;;;;;;;6.13;2.72;;;;;;;8.61;73.69;99867.06;5075814;28;20475;-64
2023/04/13 07:35:16;;;;;;;7.85;2.90;;;;;;;8.62;73.55;99867.91;5086479;28;20042;-64
2023/04/13 07:37:42;;;;;;;7.72;3.03;;;;;;;8.63;73.47;99875.94;5071662;28;20135;-65
2023/04/13 07:40:08;;;;;;;12.50;3.33;;;;;;;8.68;72.95;99884.25;5074271;28;20028;-64
2023/04/13 07:42:33;;;;;;;10.15;3.63;;;;;;;8.71;73.24;99878.22;5075186;28;20115;-65
2023/04/13 07:44:58;;;;;;;10.35;3.20;;;;;;;8.69;73.16;99887.88;5087028;28;20600;-65
2023/04/13 07:47:23;;;;;;;13.45;3.53;;;;;;;8.70;73.52;99892.31;5092177;28;20094;-64
2023/04/13 07:49:49;;;;;;;10.15;3.53;;;;;;;8.73;72.91;99902.84;5080516;28;20046;-65
2023/04/13 07:52:14;;;;;;;7.90;3.30;;;;;;;8.72;73.39;99902.00;5079680;28;20044;-66
2023/04/13 07:54:40;;;;;;;13.38;3.85;;;;;;;8.76;73.25;99907.84;5071634;28;20476;-65
2023/04/13 07:57:05;;;;;;;7.00;3.45;;;;;;;8.80;73.68;99911.75;5090700;28;20471;-66
2023/04/13 07:59:31;;;;;;;14.23;3.67;;;;;;;8.84;73.44;99910.97;5067748;28;20599;-66
2023/04/13 08:01:59;;;;;;;14.50;4.07;;;;;;;8.88;73.66;99910.41;5070944;28;20365;-66
2023/04/13 08:04:24;;;;;;;10.32;3.70;;;;;;;8.90;72.91;99919.31;5071357;28;20032;-66
2023/04/13 08:06:50;;;;;;;9.68;3.63;;;;;;;8.90;72.13;99925.66;5070143;28;20060;-66
2023/04/13 08:09:15;;;;;;;10.65;3.83;;;;;;;8.95;72.68;99920.16;5075748;28;20047;-66
2023/04/13 08:11:41;;;;;;;11.48;4.15;;;;;;;8.99;73.08;99928.78;5090933;28;20055;-65
2023/04/13 08:14:08;;;;;;;14.15;3.90;;;;;;;9.07;73.08;99936.59;5069859;28;20486;-65
2023/04/13 08:16:34;;;;;;;13.57;4.53;;;;;;;9.09;71.79;99931.63;5080140;28;20032;-65
2023/04/13 08:19:00;;;;;;;11.57;4.03;;;;;;;9.12;71.68;99933.00;5090217;28;20028;-69
2023/04/13 08:21:25;;;;;;;13.07;4.70;;;;;;;9.15;72.36;99943.56;5090086;28;20043;-68
2023/04/13 08:23:51;;;;;;;12.68;4.22;;;;;;;9.16;71.48;99940.56;5090797;28;20364;-67
2023/04/13 08:26:20;;;;;;;10.75;4.15;;;;;;;9.17;71.18;99956.06;5088558;28;20478;-67
2023/04/13 08:28:47;;;;;;;15.13;4.22;;;;;;;9.19;71.24;99955.78;5072997;28;20028;-67
2023/04/13 08:31:13;;;;;;;19.48;4.35;;;;;;;9.22;70.66;99966.31;5072200;28;20032;-67
2023/04/13 08:33:38;;;;;;;16.20;4.53;;;;;;;9.24;69.96;99955.84;5065843;28;20033;-67
2023/04/13 08:36:05;;;;;;;13.48;3.83;;;;;;;9.27;70.05;99974.66;5071327;28;20036;-67
2023/04/13 08:38:32;;;;;;;13.48;4.10;;;;;;;9.29;70.42;99972.47;5075182;28;20121;-67
2023/04/13 08:40:57;;;;;;;18.83;4.20;;;;;;;9.30;70.38;99976.91;5069000;28;20025;-67
2023/04/13 08:43:23;;;;;;;15.80;4.38;;;;;;;9.34;69.61;99983.56;5090478;28;20028;-67
2023/04/13 08:45:49;;;;;;;17.98;4.22;;;;;;;9.30;69.92;99979.66;5090356;28;20547;-67
2023/04/13 08:48:17;;;;;;;15.38;4.18;;;;;;;9.36;69.21;99983.31;5073125;28;20113;-67
2023/04/13 08:50:43;;;;;;;15.10;3.53;;;;;;;9.37;68.30;99999.66;5084639;28;20476;-67
2023/04/13 08:53:09;;;;;;;13.98;4.13;;;;;;;9.38;68.27;100001.31;5089340;28;20020;-67
2023/04/13 08:55:42;;;;;;;11.75;3.17;;;;;;;9.41;67.07;99998.03;5087531;28;20024;-66
2023/04/13 08:58:15;;;;;;;18.73;3.65;;;;;;;9.45;67.63;100009.41;5087615;28;20474;-67
2023/04/13 09:00:42;;;;;;;12.82;3.20;;;;;;;9.46;67.56;100016.63;5075805;28;20040;-66
2023/04/13 09:03:11;;;;;;;11.13;3.33;;;;;;;9.47;66.22;100021.91;5068944;28;20029;-66
2023/04/13 09:05:40;;;;;;;11.50;3.50;;;;;;;9.54;67.06;100027.19;5069479;28;20390;-66
2023/04/13 09:08:06;;;;;;;14.82;4.15;;;;;;;9.61;66.77;100033.34;5082196;28;20451;-67
2023/04/13 09:10:35;;;;;;;14.70;3.40;;;;;;;9.74;67.08;100035.63;5088918;28;20035;-66
2023/04/13 09:13:01;;;;;;;13.43;3.60;;;;;;;9.87;67.28;100026.03;5089651;28;20066;-67
2023/04/13 09:15:26;;;;;;;16.75;3.78;;;;;;;9.96;66.21;100032.72;5089842;28;20783;-66
2023/04/13 09:17:57;;;;;;;11.20;3.60;;;;;;;10.04;66.47;100048.03;5069993;28;20020;-66
2023/04/13 09:20:23;;;;;;;15.68;3.20;;;;;;;10.05;65.95;100042.19;5071236;28;20039;-67
2023/04/13 09:22:50;;;;;;;14.45;3.08;;;;;;;10.05;65.82;100038.59;5074228;28;20634;-68
2023/04/13 09:25:26;;;;;;;10.13;3.10;;;;;;;10.07;65.96;100062.19;5084146;28;20475;-67
2023/04/13 09:27:52;;;;;;;13.45;3.30;;;;;;;10.04;65.03;100050.78;5081994;28;20434;-67
2023/04/13 09:30:20;;;;;;;14.80;3.78;;;;;;;10.02;64.60;100064.06;5075824;28;20028;-67
2023/04/13 09:32:46;;;;;;;12.88;3.00;;;;;;;9.98;64.48;100058.25;5070220;28;20193;-67
2023/04/13 09:35:12;;;;;;;12.05;2.97;;;;;;;9.96;64.20;100063.22;5065386;28;20570;-67
2023/04/13 09:37:40;;;;;;;10.98;3.33;;;;;;;9.95;64.26;100069.88;5075668;28;20032;-67
2023/04/13 09:40:15;;;;;;;14.75;3.30;;;;;;;9.94;64.59;100095.06;5080707;28;20815;-68
2023/04/13 09:43:04;;;;;;;8.45;3.00;;;;;;;9.93;64.60;100088.69;5073908;28;20039;-67
2023/04/13 09:45:37;;;;;;;12.43;3.10;;;;;;;9.88;64.89;100091.44;5071307;28;20043;-67
2023/04/13 09:48:04;;;;;;;14.27;3.15;;;;;;;9.89;64.42;100095.06;5085132;28;20032;-67
2023/04/13 09:50:35;;;;;;;9.65;2.80;;;;;;;9.90;64.30;100105.88;5071222;28;20035;-67
2023/04/13 09:53:03;;;;;;;17.67;3.63;;;;;;;9.91;64.33;100113.09;5074841;28;20047;-66
2023/04/13 09:55:31;;;;;;;9.75;3.15;;;;;;;9.91;63.98;100110.31;5083078;28;20659;-67
2023/04/13 09:58:07;;;;;;;11.20;2.75;;;;;;;9.95;64.34;100119.78;5081629;28;20032;-66
2023/04/13 10:00:33;;;;;;;12.45;3.42;;;;;;;9.92;64.68;100125.84;5076883;28;20027;-66
2023/04/13 10:03:00;;;;;;;11.57;3.25;;;;;;;9.92;65.13;100130.56;5079390;28;20391;-66
2023/04/13 10:05:26;;;;;;;10.25;3.30;;;;;;;9.92;65.99;100136.94;5076727;28;20024;-68
2023/04/13 10:07:53;;;;;;;12.05;3.47;;;;;;;9.93;65.80;100144.16;5081820;28;20149;-66
2023/04/13 10:10:21;;;;;;;13.13;4.07;;;;;;;9.92;64.87;100141.66;5076552;28;20028;-68
2023/04/13 10:12:50;;;;;;;14.32;4.57;;;;;;;9.95;65.08;100141.13;5058414;28;20393;-67
2023/04/13 10:15:43;;;;;;;11.88;3.90;;;;;;;9.96;64.90;100149.16;5065987;28;20104;-67
2023/04/13 10:18:25;;;;;;;20.67;4.57;;;;;;;9.95;64.61;100153.03;5056751;28;20055;-67
2023/04/13 10:20:52;;;;;;;15.40;4.50;;;;;;;9.98;64.85;100163.59;5049936;28;20059;-68
2023/04/13 10:23:19;;;;;;;15.80;4.70;;;;;;;10.00;64.92;100155.84;5054312;28;20040;-68
2023/04/13 10:25:52;;;;;;;13.07;4.53;;;;;;;10.03;64.90;100160.88;5058130;28;20025;-67
2023/04/13 10:28:18;;;;;;;13.55;4.47;;;;;;;10.02;63.89;100166.66;5052359;28;20490;-66
2023/04/13 10:30:50;;;;;;;9.93;4.60;;;;;;;10.03;63.52;100165.56;5054204;28;20096;-70
2023/04/13 10:33:16;;;;;;;14.02;5.05;;;;;;;10.04;63.03;100172.78;5059054;28;20412;-70
2023/04/13 10:35:52;;;;;;;15.02;5.00;;;;;;;10.06;63.26;100170.56;5055843;28;20112;-69
2023/04/13 10:38:18;;;;;;;14.75;4.85;;;;;;;10.07;62.91;100177.81;5055444;28;20806;-68
2023/04/13 10:40:45;;;;;;;13.50;5.15;;;;;;;10.12;62.96;100185.31;5054304;28;20036;-65
2023/04/13 10:43:10;;;;;;;16.08;4.63;;;;;;;10.19;63.21;100185.94;5064295;28;20040;-65
2023/04/13 10:45:36;;;;;;;13.68;4.85;;;;;;;10.27;63.11;100177.13;5072075;28;20040;-68
2023/04/13 10:48:02;;;;;;;16.20;4.90;;;;;;;10.31;63.30;100184.66;5062280;28;20080;-67
2023/04/13 10:50:27;;;;;;;15.25;4.63;;;;;;;10.39;62.59;100194.41;5047537;28;20107;-66
2023/04/13 10:53:22;;;;;;;17.98;4.95;;;;;;;10.44;63.31;100185.28;5066094;28;20473;-65
2023/04/13 10:55:48;;;;;;;18.63;4.50;;;;;;;10.44;62.41;100204.69;5063133;28;20029;-65
2023/04/13 10:58:15;;;;;;;14.38;4.80;;;;;;;10.40;62.20;100204.41;5052549;28;20510;-67
2023/04/13 11:00:43;;;;;;;11.70;3.78;;;;;;;10.41;62.01;100208.00;5056983;28;20029;-65
2023/04/13 11:03:09;;;;;;;15.10;4.60;;;;;;;10.43;62.39;100219.69;5056749;28;20132;-65
2023/04/13 11:05:34;;;;;;;18.08;3.85;;;;;;;10.42;62.89;100213.31;5069171;28;20115;-64
2023/04/13 11:08:00;;;;;;;12.02;3.50;;;;;;;10.42;62.52;100220.78;5053709;28;20389;-65
2023/04/13 11:10:27;;;;;;;9.48;4.07;;;;;;;10.45;62.92;100218.31;5060111;28;20057;-64
2023/04/13 11:12:54;;;;;;;14.90;3.08;;;;;;;10.47;62.81;100223.59;5077512;28;20075;-65
2023/04/13 11:15:25;;;;;;;11.38;2.95;;;;;;;10.47;62.33;100238.28;5072309;28;20035;-63
2023/04/13 11:17:59;;;;;;;15.30;3.10;;;;;;;10.49;62.43;100230.56;5085028;28;20037;-63
2023/04/13 11:20:35;;;;;;;14.48;2.72;;;;;;;10.48;62.48;100239.13;5071115;28;20064;-63
2023/04/13 11:23:03;;;;;;;9.45;3.05;;;;;;;10.48;62.67;100239.97;5068970;28;20056;-63
2023/04/13 11:25:29;;;;;;;14.32;3.30;;;;;;;10.48;62.03;100228.84;5089528;28;20109;-65
2023/04/13 11:27:59;;;;;;;10.48;3.00;;;;;;;10.53;62.34;100237.25;5079571;28;20118;-64
2023/04/13 11:30:25;;;;;;;10.30;2.45;;;;;;;10.59;62.26;100235.31;5068913;28;20028;-65
2023/04/13 11:32:52;;;;;;;8.50;2.78;;;;;;;10.74;62.27;100246.50;5072783;28;20078;-65
2023/04/13 11:35:18;;;;;;;9.73;3.05;;;;;;;10.83;61.03;100235.72;5068163;28;20079;-64